Time;durP1;ratioP1;P1;durP2;ratioP2;P2;SDS_P1;SDS_P2;PMS_P1;PMS_P2;Temp;Humidity;BMP_temperature;BMP_pressure;BME280_temperature;BME280_humidity;BME280_pressure;Samples;Min_cycle;Max_cycle;Signal;HPM_P1;HPM_P2
2022/09/26 00:00:00;;;;;;;7.18;5.90;;;10.80;99.90;;;;;;5066049;28;20088;-78
2022/09/26 00:02:28;;;;;;;7.70;5.90;;;11.00;99.90;;;;;;5059644;28;20048;-77
2022/09/26 00:04:54;;;;;;;6.20;5.55;;;11.20;99.90;;;;;;5065681;28;20019;-77
2022/09/26 00:07:20;;;;;;;6.22;5.63;;;11.20;99.90;;;;;;5075706;28;20381;-78
2022/09/26 00:09:47;;;;;;;9.57;6.32;;;11.30;99.90;;;;;;5072954;28;20021;-78
2022/09/26 00:12:14;;;;;;;8.05;5.72;;;11.50;99.90;;;;;;5074130;28;20017;-77
2022/09/26 00:14:39;;;;;;;6.55;5.40;;;11.50;99.90;;;;;;5072529;28;20017;-77
2022/09/26 00:17:05;;;;;;;7.68;5.35;;;11.50;99.90;;;;;;5067091;28;20012;-77
2022/09/26 00:19:31;;;;;;;6.10;5.40;;;11.50;99.90;;;;;;5073106;28;20481;-77
2022/09/26 00:21:57;;;;;;;8.63;5.05;;;11.50;99.90;;;;;;5073810;28;20029;-76
2022/09/26 00:24:23;;;;;;;5.78;5.18;;;11.50;99.90;;;;;;5073411;28;20025;-77
2022/09/26 00:26:48;;;;;;;6.93;5.40;;;11.50;99.90;;;;;;5072053;28;20009;-77
2022/09/26 00:29:14;;;;;;;6.55;5.15;;;11.50;99.90;;;;;;5075323;28;20499;-77
2022/09/26 00:31:43;;;;;;;7.45;5.35;;;11.40;99.90;;;;;;5073873;28;20016;-77
2022/09/26 00:34:14;;;;;;;7.85;5.53;;;11.40;99.90;;;;;;5070309;28;20032;-77
2022/09/26 00:36:40;;;;;;;;;;;11.30;99.90;;;;;;5062564;28;20045;-77
2022/09/26 00:39:07;;;;;;;11.32;6.35;;;11.40;99.90;;;;;;5071925;28;19904;-78
2022/09/26 00:41:33;;;;;;;6.35;5.50;;;11.40;99.90;;;;;;5069442;28;20027;-77
2022/09/26 00:43:59;;;;;;;8.00;4.75;;;11.40;99.90;;;;;;5063992;28;20052;-77
2022/09/26 00:46:36;;;;;;;6.82;4.97;;;11.40;99.90;;;;;;5070772;28;20031;-77
2022/09/26 00:49:17;;;;;;;6.97;5.43;;;11.40;99.90;;;;;;5072794;28;20062;-78
2022/09/26 00:52:04;;;;;;;6.93;5.10;;;11.40;99.90;;;;;;5068632;28;20031;-78
2022/09/26 00:54:30;;;;;;;5.82;4.43;;;11.30;99.90;;;;;;5074301;28;20032;-77
2022/09/26 00:57:05;;;;;;;4.90;4.40;;;11.30;99.90;;;;;;5073299;28;20039;-77
2022/09/26 00:59:36;;;;;;;5.47;4.25;;;11.30;99.90;;;;;;5075903;28;20377;-78
2022/09/26 01:02:03;;;;;;;6.03;4.60;;;11.40;99.90;;;;;;5075699;28;20033;-78
2022/09/26 01:04:33;;;;;;;5.22;4.57;;;11.40;99.90;;;;;;5078268;28;20111;-78
2022/09/26 01:07:03;;;;;;;4.73;4.33;;;11.30;99.90;;;;;;5065181;28;20776;-78
2022/09/26 01:09:31;;;;;;;6.30;5.03;;;11.40;99.90;;;;;;5061669;28;20033;-78
2022/09/26 01:12:00;;;;;;;8.23;4.68;;;11.40;99.90;;;;;;5073033;28;20016;-78
2022/09/26 01:14:27;;;;;;;5.18;4.68;;;11.40;99.90;;;;;;5077912;28;20038;-78
2022/09/26 01:16:54;;;;;;;5.80;4.60;;;11.40;99.90;;;;;;5076198;28;20115;-78
2022/09/26 01:19:37;;;;;;;6.03;4.45;;;11.40;99.90;;;;;;5078581;28;20020;-78
2022/09/26 01:22:40;;;;;;;9.65;4.60;;;11.40;99.90;;;;;;5071048;28;20025;-78
2022/09/26 01:25:12;;;;;;;5.63;4.85;;;11.40;99.90;;;;;;5078255;28;20054;-78
2022/09/26 01:27:43;;;;;;;7.55;5.13;;;11.30;99.90;;;;;;5078027;28;20079;-78
2022/09/26 01:30:15;;;;;;;6.15;5.13;;;11.20;99.90;;;;;;5076274;28;20021;-78
2022/09/26 01:33:01;;;;;;;6.80;4.53;;;11.10;99.90;;;;;;5075262;28;20074;-78
2022/09/26 01:35:33;;;;;;;6.15;4.53;;;11.00;99.90;;;;;;5068028;28;20021;-78
2022/09/26 01:38:23;;;;;;;6.93;4.72;;;10.80;99.90;;;;;;5076747;28;20064;-78
2022/09/26 01:41:03;;;;;;;9.02;4.13;;;10.80;99.90;;;;;;5067343;28;20492;-78
2022/09/26 01:43:48;;;;;;;6.85;5.28;;;10.70;99.90;;;;;;5073109;28;20035;-78
2022/09/26 01:46:26;;;;;;;7.70;4.43;;;10.60;99.90;;;;;;5073632;28;20055;-78
2022/09/26 01:49:00;;;;;;;6.47;4.35;;;10.50;99.90;;;;;;5063557;28;20099;-78
2022/09/26 01:51:35;;;;;;;10.02;4.57;;;10.50;99.90;;;;;;5067731;28;20044;-78
2022/09/26 01:54:11;;;;;;;7.90;4.40;;;10.50;99.90;;;;;;5066527;28;20104;-78
2022/09/26 01:56:41;;;;;;;5.15;4.38;;;10.40;99.90;;;;;;5069377;28;20082;-78
2022/09/26 01:59:22;;;;;;;7.78;4.80;;;10.40;99.90;;;;;;5070129;28;20028;-78
2022/09/26 02:01:53;;;;;;;5.57;4.97;;;10.40;99.90;;;;;;5071664;28;20021;-78
2022/09/26 02:04:24;;;;;;;11.32;5.38;;;10.30;99.90;;;;;;5075038;28;20028;-78
2022/09/26 02:07:03;;;;;;;9.73;4.53;;;10.20;99.90;;;;;;5072876;28;20021;-78
2022/09/26 02:09:38;;;;;;;6.75;4.82;;;10.20;99.90;;;;;;5065255;28;20029;-78
2022/09/26 02:12:08;;;;;;;7.07;5.03;;;10.20;99.90;;;;;;5075205;28;20013;-78
2022/09/26 02:14:36;;;;;;;6.93;4.43;;;10.20;99.90;;;;;;5076945;28;20058;-78
2022/09/26 02:17:12;;;;;;;6.15;4.50;;;10.20;99.90;;;;;;5076136;28;20020;-78
2022/09/26 02:20:00;;;;;;;7.70;4.80;;;10.10;99.90;;;;;;5077134;28;20427;-78
2022/09/26 02:22:30;;;;;;;6.82;5.53;;;10.10;99.90;;;;;;5072577;28;20017;-77
2022/09/26 02:24:57;;;;;;;7.82;5.32;;;10.10;99.90;;;;;;5068168;28;20020;-77
2022/09/26 02:27:24;;;;;;;7.78;4.82;;;10.00;99.90;;;;;;5073156;28;20035;-77
2022/09/26 02:29:50;;;;;;;8.63;5.50;;;10.00;99.90;;;;;;5074063;28;20024;-78
2022/09/26 02:32:19;;;;;;;9.75;5.30;;;10.00;99.90;;;;;;5074925;28;20032;-78
2022/09/26 02:34:47;;;;;;;6.95;5.47;;;10.00;99.90;;;;;;5074781;28;20021;-78
2022/09/26 02:37:15;;;;;;;7.63;4.50;;;10.00;99.90;;;;;;5076969;28;20433;-77
2022/09/26 02:39:42;;;;;;;6.20;4.70;;;10.10;99.90;;;;;;5062134;28;20021;-78
2022/09/26 02:42:27;;;;;;;10.60;5.97;;;10.30;99.90;;;;;;5059100;28;20464;-78
2022/09/26 02:45:11;;;;;;;8.70;5.30;;;10.40;99.90;;;;;;5064967;28;20062;-78
2022/09/26 02:47:56;;;;;;;7.82;5.70;;;10.50;99.90;;;;;;5067575;28;20104;-78
2022/09/26 02:50:50;;;;;;;7.75;4.70;;;10.50;99.90;;;;;;5064534;28;20021;-78
2022/09/26 02:53:37;;;;;;;5.30;4.70;;;10.60;99.90;;;;;;5064053;28;20560;-78
2022/09/26 02:56:27;;;;;;;8.05;5.15;;;10.60;99.90;;;;;;5070032;28;20024;-78
2022/09/26 02:59:05;;;;;;;7.00;5.22;;;10.60;99.90;;;;;;5070405;28;20485;-77
2022/09/26 03:01:42;;;;;;;9.40;5.30;;;10.70;99.90;;;;;;5075236;28;20028;-78
2022/09/26 03:04:34;;;;;;;6.45;5.85;;;10.70;99.90;;;;;;5075957;28;20035;-77
2022/09/26 03:07:06;;;;;;;8.10;4.72;;;10.70;99.90;;;;;;5075887;28;20028;-78
2022/09/26 03:09:33;;;;;;;6.53;4.95;;;10.80;99.90;;;;;;5069358;28;20063;-78
2022/09/26 03:12:03;;;;;;;7.03;4.63;;;10.80;99.90;;;;;;5066168;28;20542;-77
2022/09/26 03:14:31;;;;;;;6.18;4.35;;;10.90;99.90;;;;;;5071434;28;20068;-79
2022/09/26 03:16:58;;;;;;;10.25;4.57;;;10.90;99.90;;;;;;5074070;28;20048;-78
2022/09/26 03:19:38;;;;;;;10.40;4.68;;;10.80;99.90;;;;;;5075131;28;20381;-78
2022/09/26 03:22:04;;;;;;;9.93;4.88;;;10.90;99.90;;;;;;5073613;28;20028;-78
2022/09/26 03:24:31;;;;;;;9.02;4.68;;;10.80;99.90;;;;;;5075658;28;20059;-79
2022/09/26 03:26:59;;;;;;;6.18;4.47;;;10.80;99.90;;;;;;5059536;28;20023;-78
2022/09/26 03:29:25;;;;;;;9.05;4.75;;;10.90;99.90;;;;;;5059134;28;20017;-78
2022/09/26 03:31:51;;;;;;;7.13;4.07;;;11.00;99.90;;;;;;5063456;28;20393;-77
2022/09/26 03:34:18;;;;;;;8.50;4.57;;;11.00;99.90;;;;;;5073033;28;20025;-78
2022/09/26 03:36:44;;;;;;;8.90;3.65;;;11.00;99.90;;;;;;5082903;28;20041;-79
2022/09/26 03:39:10;;;;;;;10.23;4.40;;;11.10;99.90;;;;;;5062170;28;20032;-78
2022/09/26 03:41:36;;;;;;;6.90;4.28;;;11.10;99.90;;;;;;5070209;28;20029;-79
2022/09/26 03:44:02;;;;;;;4.65;4.20;;;11.20;99.90;;;;;;5066405;28;20025;-78
2022/09/26 03:46:28;;;;;;;6.82;3.88;;;11.10;99.90;;;;;;5070410;28;20028;-79
2022/09/26 03:48:53;;;;;;;5.07;4.40;;;11.10;99.90;;;;;;5069018;28;20035;-78
2022/09/26 03:51:19;;;;;;;7.65;4.55;;;11.20;99.90;;;;;;5073420;28;20082;-78
2022/09/26 03:53:46;;;;;;;11.23;5.03;;;11.20;99.90;;;;;;5072429;28;21296;-78
2022/09/26 03:56:14;;;;;;;5.43;4.53;;;11.10;99.90;;;;;;5075485;28;20496;-78
2022/09/26 03:58:41;;;;;;;6.63;3.65;;;11.10;99.90;;;;;;5076744;28;20029;-78
2022/09/26 04:01:13;;;;;;;8.82;4.43;;;11.10;99.90;;;;;;5058064;28;20471;-79
2022/09/26 04:03:41;;;;;;;12.00;4.43;;;11.10;99.90;;;;;;5058844;28;20028;-78
2022/09/26 04:06:08;;;;;;;5.18;3.63;;;11.10;99.90;;;;;;5062798;28;20061;-79
2022/09/26 04:08:39;;;;;;;8.63;5.13;;;11.10;99.90;;;;;;5065856;28;20029;-78
2022/09/26 04:11:07;;;;;;;5.70;4.32;;;11.10;99.90;;;;;;5066007;28;20388;-79
2022/09/26 04:13:33;;;;;;;13.25;5.55;;;11.10;99.90;;;;;;5062846;28;20044;-78
2022/09/26 04:16:00;;;;;;;8.32;5.10;;;11.10;99.90;;;;;;5067282;28;20029;-78
2022/09/26 04:18:29;;;;;;;5.15;4.10;;;11.00;99.90;;;;;;5075394;28;20013;-79
2022/09/26 04:21:13;;;;;;;5.18;4.40;;;11.00;99.90;;;;;;5075385;28;20029;-79
2022/09/26 04:23:39;;;;;;;7.40;4.70;;;11.00;99.90;;;;;;5063264;28;20084;-79
2022/09/26 04:26:08;;;;;;;6.65;4.45;;;11.00;99.90;;;;;;5073092;28;20030;-79
2022/09/26 04:28:34;;;;;;;4.47;3.90;;;11.00;99.90;;;;;;5071809;28;20017;-79
2022/09/26 04:31:02;;;;;;;9.32;5.15;;;11.00;99.90;;;;;;5075676;28;20024;-78
2022/09/26 04:33:29;;;;;;;9.60;4.13;;;11.00;99.90;;;;;;5075392;28;20024;-77
2022/09/26 04:36:03;;;;;;;8.23;4.13;;;11.00;99.90;;;;;;5065691;28;20021;-77
2022/09/26 04:38:32;;;;;;;6.38;4.57;;;11.00;99.90;;;;;;5059539;28;20534;-77
2022/09/26 04:41:27;;;;;;;7.18;4.25;;;11.00;99.90;;;;;;5059406;28;20039;-77
2022/09/26 04:43:55;;;;;;;8.55;4.55;;;11.00;99.90;;;;;;5056127;28;20520;-78
2022/09/26 04:46:24;;;;;;;6.32;4.50;;;10.90;99.90;;;;;;5065039;28;20139;-78
2022/09/26 04:48:51;;;;;;;6.60;4.32;;;10.90;99.90;;;;;;5062851;28;20435;-77
2022/09/26 04:51:18;;;;;;;6.78;4.65;;;10.80;99.90;;;;;;5072154;28;20393;-78
2022/09/26 04:53:45;;;;;;;5.88;4.70;;;10.80;99.90;;;;;;5067447;28;20025;-78
2022/09/26 04:56:12;;;;;;;6.53;4.72;;;10.80;99.90;;;;;;5068735;28;20052;-77
2022/09/26 04:58:40;;;;;;;5.97;4.30;;;10.80;99.90;;;;;;5069557;28;20096;-77
2022/09/26 05:01:15;;;;;;;6.72;3.97;;;10.70;99.90;;;;;;5070497;28;20115;-79
2022/09/26 05:03:41;;;;;;;8.23;4.13;;;10.70;99.90;;;;;;5073337;28;20032;-79
2022/09/26 05:06:09;;;;;;;8.95;4.65;;;10.70;99.90;;;;;;5075605;28;20098;-77
2022/09/26 05:08:36;;;;;;;6.70;4.38;;;10.70;99.90;;;;;;5074735;28;20054;-77
2022/09/26 05:11:02;;;;;;;8.10;4.43;;;10.70;99.90;;;;;;5057672;28;20013;-77
2022/09/26 05:13:28;;;;;;;10.40;4.25;;;10.70;99.90;;;;;;5056880;28;20037;-77
2022/09/26 05:15:57;;;;;;;7.32;4.28;;;10.70;99.90;;;;;;5060477;28;20021;-77
2022/09/26 05:18:23;;;;;;;13.40;4.68;;;10.70;99.90;;;;;;5068240;28;20025;-77
2022/09/26 05:20:49;;;;;;;7.05;4.20;;;10.70;99.90;;;;;;5074990;28;20029;-77
2022/09/26 05:26:18;;;;;;;6.93;4.93;;;10.80;99.90;;;;;;5069364;28;20413;-77
2022/09/26 05:26:30;;;;;;;11.27;4.55;;;10.70;99.90;;;;;;5075889;28;20025;-77
2022/09/26 05:29:03;;;;;;;9.70;5.20;;;10.70;99.90;;;;;;5063553;28;20104;-77
2022/09/26 05:31:32;;;;;;;6.60;4.13;;;10.70;99.90;;;;;;5066484;28;20025;-77
2022/09/26 05:33:59;;;;;;;5.22;4.55;;;10.70;99.90;;;;;;5070829;28;20183;-77
2022/09/26 05:36:25;;;;;;;6.13;3.92;;;10.70;99.90;;;;;;5073992;28;20362;-77
2022/09/26 05:38:52;;;;;;;8.73;4.20;;;10.70;99.90;;;;;;5077489;28;20442;-77
2022/09/26 05:41:18;;;;;;;6.85;4.05;;;10.70;99.90;;;;;;5077935;28;20485;-77
2022/09/26 05:43:45;;;;;;;6.65;4.38;;;10.70;99.90;;;;;;5071188;28;20028;-77
2022/09/26 05:46:12;;;;;;;9.25;5.18;;;10.70;99.90;;;;;;5073634;28;20025;-77
2022/09/26 05:48:39;;;;;;;8.07;4.80;;;10.70;99.90;;;;;;5076969;28;20024;-77
2022/09/26 05:51:14;;;;;;;6.63;3.50;;;10.70;99.90;;;;;;5073033;28;20027;-77
2022/09/26 05:53:41;;;;;;;7.22;4.53;;;10.70;99.90;;;;;;5066916;28;20571;-77
2022/09/26 05:56:08;;;;;;;5.63;4.35;;;10.70;99.90;;;;;;5061753;28;20029;-78
2022/09/26 05:58:35;;;;;;;4.82;3.85;;;10.80;99.90;;;;;;5075763;28;20021;-78
2022/09/26 06:01:09;;;;;;;6.15;4.07;;;10.90;99.90;;;;;;5073607;28;20405;-80
2022/09/26 06:03:36;;;;;;;4.40;3.65;;;10.90;99.90;;;;;;5076674;28;20074;-80
2022/09/26 06:06:07;;;;;;;10.07;4.18;;;11.00;99.90;;;;;;5071226;28;20093;-81
2022/09/26 06:08:34;;;;;;;6.38;3.80;;;11.00;99.90;;;;;;5063119;28;20020;-80
2022/09/26 06:11:11;;;;;;;8.13;4.45;;;11.10;99.90;;;;;;5070905;28;20020;-81
2022/09/26 06:13:37;;;;;;;9.00;4.47;;;11.10;99.90;;;;;;5064069;28;20039;-82
2022/09/26 06:16:06;;;;;;;5.95;4.30;;;11.10;99.90;;;;;;5068514;28;20180;-81
2022/09/26 06:18:35;;;;;;;8.93;5.00;;;11.10;99.90;;;;;;5072128;28;20427;-81
2022/09/26 06:21:05;;;;;;;5.30;3.88;;;11.10;99.90;;;;;;5077344;28;20189;-80
2022/09/26 06:23:33;;;;;;;6.13;4.43;;;11.20;99.90;;;;;;5071628;28;20017;-81
2022/09/26 06:25:59;;;;;;;6.25;4.32;;;11.20;99.90;;;;;;5062930;28;20024;-79
2022/09/26 06:28:26;;;;;;;9.02;4.45;;;11.20;99.90;;;;;;5059891;28;20389;-81
2022/09/26 06:30:55;;;;;;;4.68;3.72;;;11.30;99.90;;;;;;5064855;28;20026;-81
2022/09/26 06:33:21;;;;;;;8.73;3.92;;;11.30;99.90;;;;;;5079554;28;20029;-81
2022/09/26 06:36:00;;;;;;;6.60;3.95;;;11.30;99.90;;;;;;5077107;28;20028;-82
2022/09/26 06:38:27;;;;;;;8.05;4.53;;;11.40;99.90;;;;;;5065800;28;20071;-80
2022/09/26 06:40:53;;;;;;;11.38;4.10;;;11.40;99.90;;;;;;5061427;28;20070;-79
2022/09/26 06:43:19;;;;;;;8.48;4.32;;;11.50;99.90;;;;;;5065037;28;20032;-79
2022/09/26 06:45:47;;;;;;;7.25;4.10;;;11.50;99.90;;;;;;5064843;28;20436;-80
2022/09/26 06:48:14;;;;;;;7.38;4.05;;;11.60;99.90;;;;;;5046835;28;20039;-80
2022/09/26 06:50:40;;;;;;;8.77;4.03;;;11.60;99.90;;;;;;5072406;28;20016;-81
2022/09/26 06:53:06;;;;;;;7.18;4.03;;;11.70;99.90;;;;;;5073057;28;20393;-80
2022/09/26 06:55:32;;;;;;;4.85;3.70;;;11.70;99.90;;;;;;5070190;28;20056;-80
2022/09/26 06:57:58;;;;;;;6.80;4.15;;;11.80;99.90;;;;;;5075477;28;20031;-82
2022/09/26 07:00:25;;;;;;;6.75;3.70;;;11.80;99.90;;;;;;5066561;28;20047;-81
2022/09/26 07:02:52;;;;;;;5.00;3.88;;;11.90;99.90;;;;;;5077120;28;20376;-82
2022/09/26 07:05:20;;;;;;;6.75;3.83;;;12.00;99.90;;;;;;5065893;28;20028;-81
2022/09/26 07:07:47;;;;;;;11.77;4.88;;;12.00;99.90;;;;;;5067222;28;20111;-81
2022/09/26 07:10:17;;;;;;;4.90;4.13;;;12.00;99.90;;;;;;5072323;28;20074;-81
2022/09/26 07:12:46;;;;;;;4.90;4.03;;;12.10;99.90;;;;;;5074492;28;20021;-81
2022/09/26 07:15:14;;;;;;;9.68;4.43;;;12.20;99.90;;;;;;5074671;28;20036;-81
2022/09/26 07:17:41;;;;;;;6.40;3.50;;;12.30;99.90;;;;;;5064801;28;20017;-80
2022/09/26 07:20:12;;;;;;;5.78;3.78;;;12.30;99.90;;;;;;5069061;28;20024;-81
2022/09/26 07:22:38;;;;;;;7.40;3.83;;;12.40;99.90;;;;;;5075278;28;20040;-78
2022/09/26 07:25:05;;;;;;;8.43;3.60;;;12.50;99.90;;;;;;5072541;28;20033;-79
2022/09/26 07:27:31;;;;;;;7.30;3.90;;;12.60;99.90;;;;;;5075747;28;20595;-80
2022/09/26 07:29:57;;;;;;;6.15;3.53;;;12.60;99.90;;;;;;5074128;28;20028;-82
2022/09/26 07:32:24;;;;;;;6.35;4.15;;;12.70;99.90;;;;;;5056629;28;20025;-84
2022/09/26 07:34:52;;;;;;;9.95;3.75;;;12.80;99.90;;;;;;5072120;28;20439;-82
2022/09/26 07:37:17;;;;;;;5.70;3.85;;;12.80;99.90;;;;;;5073430;28;20053;-81
2022/09/26 07:39:44;;;;;;;4.82;4.03;;;12.90;99.90;;;;;;5061733;28;20102;-82
2022/09/26 07:42:10;;;;;;;6.13;3.83;;;13.00;99.90;;;;;;5060342;28;20068;-82
2022/09/26 07:44:35;;;;;;;10.68;4.50;;;13.00;99.90;;;;;;5072511;28;20024;-83
2022/09/26 07:50:12;;;;;;;7.13;3.72;;;13.20;99.90;;;;;;5056288;28;20025;-83
2022/09/26 07:52:42;;;;;;;7.95;4.40;;;13.20;99.90;;;;;;5057536;28;20032;-80
2022/09/26 07:55:10;;;;;;;;;;;13.10;99.90;;;;;;5063253;28;20051;-80
2022/09/26 07:57:35;;;;;;;8.55;4.25;;;13.10;99.90;;;;;;5064668;28;20380;-80
2022/09/26 08:00:06;;;;;;;7.88;4.25;;;13.10;99.90;;;;;;5062779;28;20050;-80
2022/09/26 08:02:33;;;;;;;8.27;4.45;;;13.10;99.90;;;;;;5067117;28;20108;-79
2022/09/26 08:05:02;;;;;;;12.15;4.32;;;13.20;99.90;;;;;;5059941;28;20017;-79
2022/09/26 08:07:28;;;;;;;6.45;4.20;;;13.20;99.90;;;;;;5069824;28;20036;-80
2022/09/26 08:09:55;;;;;;;8.52;3.92;;;13.30;99.90;;;;;;5072056;28;20029;-81
2022/09/26 08:12:21;;;;;;;7.13;4.45;;;13.30;99.90;;;;;;5065346;28;20013;-83
2022/09/26 08:14:48;;;;;;;9.00;4.40;;;13.40;99.90;;;;;;5065832;28;20542;-82
2022/09/26 08:17:15;;;;;;;6.00;4.55;;;13.40;99.90;;;;;;5074337;28;20055;-82
2022/09/26 08:19:41;;;;;;;7.88;4.35;;;13.40;99.90;;;;;;5065007;28;20063;-83
2022/09/26 08:22:07;;;;;;;6.32;4.32;;;13.40;99.90;;;;;;5059695;28;20052;-82
2022/09/26 08:24:33;;;;;;;9.02;4.75;;;13.40;99.90;;;;;;5063228;28;20522;-80
2022/09/26 08:26:59;;;;;;;8.93;4.53;;;13.50;99.90;;;;;;5074261;28;20031;-81
2022/09/26 08:29:25;;;;;;;8.38;4.47;;;13.50;99.90;;;;;;5073260;28;20377;-83
2022/09/26 08:31:53;;;;;;;5.65;4.00;;;13.60;99.90;;;;;;5071862;28;20031;-82
2022/09/26 08:34:21;;;;;;;5.97;4.25;;;13.70;99.90;;;;;;5073802;28;20021;-82
2022/09/26 08:36:53;;;;;;;8.10;4.28;;;13.90;99.90;;;;;;5068952;28;20083;-83
2022/09/26 08:39:22;;;;;;;8.30;3.63;;;13.90;99.90;;;;;;5063995;28;20049;-84
2022/09/26 08:42:27;;;;;;;6.53;3.90;;;14.10;99.90;;;;;;5070815;28;20029;-84
2022/09/26 08:45:11;;;;;;;8.15;4.20;;;14.30;99.90;;;;;;5078013;28;20021;-82
2022/09/26 08:47:48;;;;;;;4.85;3.42;;;14.50;99.90;;;;;;5071949;28;20092;-83
2022/09/26 08:50:46;;;;;;;6.13;3.55;;;14.60;99.90;;;;;;5079513;28;20041;-83
2022/09/26 08:53:19;;;;;;;6.68;3.67;;;14.80;99.90;;;;;;5074002;28;20059;-83
2022/09/26 08:55:47;;;;;;;6.30;3.30;;;14.90;99.90;;;;;;5072812;28;20025;-82
2022/09/26 08:58:25;;;;;;;5.28;3.25;;;15.00;99.90;;;;;;5080827;28;20029;-80
2022/09/26 09:00:56;;;;;;;5.00;2.80;;;15.20;99.90;;;;;;5073374;28;20507;-81
2022/09/26 09:03:32;;;;;;;4.68;3.33;;;15.30;99.90;;;;;;5072365;28;20025;-80
2022/09/26 09:06:09;;;;;;;4.55;3.13;;;15.40;99.90;;;;;;5081012;28;20028;-81
2022/09/26 09:08:44;;;;;;;6.93;2.83;;;15.50;99.90;;;;;;5065909;28;20021;-80
2022/09/26 09:11:29;;;;;;;6.85;3.28;;;15.60;99.90;;;;;;5067264;28;20039;-80
2022/09/26 09:14:13;;;;;;;5.10;2.80;;;15.60;99.90;;;;;;5067580;28;20027;-81
2022/09/26 09:17:01;;;;;;;3.90;2.67;;;15.60;99.90;;;;;;5063302;28;20481;-80
2022/09/26 09:19:36;;;;;;;5.75;2.92;;;15.70;99.90;;;;;;5039098;28;20025;-77
2022/09/26 09:22:25;;;;;;;4.00;2.80;;;15.80;99.90;;;;;;5077201;28;20048;-78
2022/09/26 09:25:02;;;;;;;3.53;2.67;;;16.00;99.90;;;;;;5088614;28;20098;-79
2022/09/26 09:28:02;;;;;;;5.28;3.15;;;16.20;99.90;;;;;;5077249;28;20081;-78
2022/09/26 09:30:40;;;;;;;4.07;2.75;;;16.30;99.90;;;;;;5075607;28;20013;-80
2022/09/26 09:33:35;;;;;;;3.67;2.65;;;16.40;99.90;;;;;;5088143;28;20035;-78
2022/09/26 09:36:06;;;;;;;3.63;2.40;;;16.40;99.90;;;;;;5076348;28;20036;-78
2022/09/26 09:38:35;;;;;;;5.50;3.40;;;16.50;99.90;;;;;;5077836;28;20045;-78
2022/09/26 09:41:10;;;;;;;7.63;2.47;;;16.50;99.90;;;;;;5068177;28;20108;-78
2022/09/26 09:43:51;;;;;;;3.38;2.50;;;16.60;99.90;;;;;;5077398;28;20031;-79
2022/09/26 09:46:27;;;;;;;6.15;2.30;;;16.70;99.90;;;;;;5067751;28;20052;-79
2022/09/26 09:49:21;;;;;;;4.05;2.22;;;16.80;99.90;;;;;;5076081;28;20013;-79
2022/09/26 09:51:54;;;;;;;6.25;2.72;;;17.00;99.90;;;;;;5064484;28;20067;-78
2022/09/26 09:54:43;;;;;;;5.70;2.63;;;17.10;99.90;;;;;;5076249;28;20028;-79
2022/09/26 09:57:43;;;;;;;6.82;2.33;;;17.20;99.90;;;;;;5070209;28;20051;-79
2022/09/26 10:00:21;;;;;;;4.18;2.65;;;17.30;99.90;;;;;;5065971;28;20063;-78
2022/09/26 10:03:00;;;;;;;2.75;2.05;;;17.40;99.90;;;;;;5077060;28;20037;-80
2022/09/26 10:05:32;;;;;;;4.80;2.15;;;17.40;99.90;;;;;;5075585;28;20017;-79
2022/09/26 10:07:58;;;;;;;5.38;2.33;;;17.50;99.90;;;;;;5073979;28;20405;-79
2022/09/26 10:10:54;;;;;;;5.60;2.30;;;17.60;99.90;;;;;;5071777;28;20052;-80
2022/09/26 10:13:24;;;;;;;5.30;2.35;;;17.60;99.90;;;;;;5050653;28;20044;-78
2022/09/26 10:16:13;;;;;;;3.90;2.45;;;17.60;99.90;;;;;;5076093;28;20069;-78
2022/09/26 10:19:08;;;;;;;2.95;1.98;;;17.70;99.90;;;;;;5072749;28;20392;-79
2022/09/26 10:21:40;;;;;;;6.03;2.10;;;17.80;99.90;;;;;;5067166;28;20024;-79
2022/09/26 10:24:42;;;;;;;3.08;2.22;;;17.80;99.90;;;;;;5075275;28;20032;-78
2022/09/26 10:27:36;;;;;;;5.28;2.50;;;18.00;99.90;;;;;;5065512;28;20038;-83
2022/09/26 10:30:06;;;;;;;5.63;2.00;;;17.90;99.90;;;;;;5075904;28;20107;-80
2022/09/26 10:32:44;;;;;;;4.47;2.25;;;17.70;99.90;;;;;;5063778;28;20373;-80
2022/09/26 10:35:18;;;;;;;3.33;2.28;;;17.70;99.90;;;;;;5071673;28;20033;-78
2022/09/26 10:38:17;;;;;;;6.90;2.40;;;17.70;99.90;;;;;;5077711;28;20078;-78
2022/09/26 10:40:51;;;;;;;4.00;2.25;;;17.80;99.90;;;;;;5067178;28;20047;-80
2022/09/26 10:43:19;;;;;;;4.97;2.40;;;17.80;99.90;;;;;;5075130;28;20028;-78
2022/09/26 10:45:47;;;;;;;4.70;2.25;;;17.80;99.90;;;;;;5074380;28;20107;-79
2022/09/26 10:48:20;;;;;;;6.82;2.30;;;17.90;99.90;;;;;;5075480;28;20032;-80
2022/09/26 10:50:51;;;;;;;3.60;2.22;;;17.80;99.90;;;;;;5075929;28;20361;-78
2022/09/26 10:53:22;;;;;;;6.85;2.38;;;17.60;99.90;;;;;;5069706;28;20378;-78
2022/09/26 10:56:00;;;;;;;4.22;2.05;;;17.60;99.90;;;;;;5071307;28;20032;-78
2022/09/26 10:58:28;;;;;;;3.08;2.20;;;17.50;99.90;;;;;;5077631;28;20051;-78
2022/09/26 11:00:59;;;;;;;3.22;2.25;;;17.50;99.90;;;;;;5073630;28;20056;-78
2022/09/26 11:03:45;;;;;;;;;;;17.40;99.90;;;;;;5067733;28;20031;-78
2022/09/26 11:06:34;;;;;;;5.63;2.40;;;17.40;99.90;;;;;;5076061;28;19908;-78
2022/09/26 11:09:03;;;;;;;4.13;2.20;;;17.50;99.90;;;;;;5064459;28;20016;-81
2022/09/26 11:11:35;;;;;;;3.80;2.22;;;17.50;99.90;;;;;;5060998;28;20032;-80
2022/09/26 11:14:07;;;;;;;3.92;2.08;;;17.50;99.90;;;;;;5075320;28;20508;-79
2022/09/26 11:16:48;;;;;;;4.63;2.20;;;17.40;99.90;;;;;;5059960;28;20086;-78
2022/09/26 11:19:20;;;;;;;;;;;17.50;99.90;;;;;;5060059;28;20028;-79
2022/09/26 11:22:24;;;;;;;6.32;2.35;;;17.50;99.90;;;;;;5062707;28;20308;-78
2022/09/26 11:25:13;;;;;;;4.22;2.25;;;17.70;99.90;;;;;;5071015;28;20027;-78
2022/09/26 11:27:51;;;;;;;3.58;1.63;;;17.80;99.90;;;;;;5070997;28;20066;-81
2022/09/26 11:30:19;;;;;;;3.22;2.00;;;18.00;99.90;;;;;;5073187;28;20394;-78
2022/09/26 11:32:55;;;;;;;3.00;2.42;;;18.00;99.90;;;;;;5069949;28;20013;-79
2022/09/26 11:35:57;;;;;;;4.32;1.55;;;18.10;99.90;;;;;;5064673;28;20476;-79
2022/09/26 11:38:42;;;;;;;2.65;1.80;;;18.20;99.90;;;;;;5040633;28;20048;-79
2022/09/26 11:41:36;;;;;;;2.80;1.65;;;18.30;99.90;;;;;;5061723;28;20031;-77
2022/09/26 11:44:33;;;;;;;6.22;2.38;;;18.40;99.90;;;;;;5067408;28;20021;-78
2022/09/26 11:47:23;;;;;;;3.58;2.10;;;18.50;99.90;;;;;;5054754;28;20021;-78
2022/09/26 11:49:59;;;;;;;3.50;1.95;;;18.60;99.90;;;;;;5067847;28;20647;-80
2022/09/26 11:52:33;;;;;;;2.58;1.77;;;18.50;99.90;;;;;;5066791;28;20021;-78
2022/09/26 11:55:23;;;;;;;6.95;2.88;;;18.40;99.90;;;;;;5062678;28;20064;-78
2022/09/26 11:58:13;;;;;;;4.18;2.30;;;18.60;99.90;;;;;;5068640;28;20511;-78
2022/09/26 12:01:03;;;;;;;5.00;2.30;;;18.60;99.90;;;;;;5073983;28;20395;-77
2022/09/26 12:03:44;;;;;;;6.72;1.95;;;18.50;99.90;;;;;;5071268;28;20361;-79
2022/09/26 12:06:33;;;;;;;2.50;1.73;;;18.40;99.90;;;;;;5080003;28;20024;-78
2022/09/26 12:09:02;;;;;;;5.80;2.38;;;18.20;99.90;;;;;;5075982;28;20066;-78
2022/09/26 12:12:14;;;;;;;3.53;2.00;;;18.20;99.90;;;;;;5075863;28;20067;-78
2022/09/26 12:15:19;;;;;;;5.57;2.05;;;18.30;99.90;;;;;;5068593;28;20034;-78
2022/09/26 12:18:06;;;;;;;7.43;2.33;;;18.60;99.90;;;;;;5051857;28;20136;-78
2022/09/26 12:20:41;;;;;;;2.97;2.00;;;18.80;99.90;;;;;;5075437;28;20441;-76
2022/09/26 12:23:26;;;;;;;4.35;2.00;;;18.80;99.90;;;;;;5072704;28;20104;-78
2022/09/26 12:26:16;;;;;;;3.42;1.90;;;18.80;99.90;;;;;;5071122;28;20028;-78
2022/09/26 12:29:00;;;;;;;6.00;1.90;;;19.00;99.90;;;;;;5073382;28;20357;-77
2022/09/26 12:32:03;;;;;;;3.67;2.05;;;19.40;99.90;;;;;;5063377;28;20036;-78
2022/09/26 12:34:29;;;;;;;4.13;1.85;;;19.70;99.90;;;;;;5072684;28;20025;-77
2022/09/26 12:37:25;;;;;;;3.05;1.60;;;19.80;99.90;;;;;;5078269;28;20048;-79
2022/09/26 12:40:26;;;;;;;4.85;1.65;;;19.80;99.90;;;;;;5070777;28;20435;-76
2022/09/26 12:43:01;;;;;;;2.80;1.70;;;19.80;99.90;;;;;;5067100;28;20456;-75
2022/09/26 12:45:37;;;;;;;3.42;1.50;;;19.80;99.90;;;;;;5068986;28;20017;-78
2022/09/26 12:48:06;;;;;;;4.25;1.77;;;19.80;99.90;;;;;;5073593;28;20498;-78
2022/09/26 12:50:47;;;;;;;3.30;1.33;;;19.70;99.90;;;;;;5070515;28;20025;-76
2022/09/26 12:53:42;;;;;;;5.43;1.80;;;19.80;99.90;;;;;;5069303;28;20028;-74
2022/09/26 12:56:14;;;;;;;5.07;1.85;;;19.80;99.90;;;;;;5045864;28;20033;-76
2022/09/26 12:58:43;;;;;;;2.40;1.63;;;19.80;99.90;;;;;;5061456;28;20025;-78
2022/09/26 13:01:17;;;;;;;4.00;1.50;;;19.80;99.90;;;;;;5065626;28;20112;-77
2022/09/26 13:04:10;;;;;;;2.10;1.50;;;19.70;99.90;;;;;;5064218;28;20029;-77
2022/09/26 13:06:54;;;;;;;17.88;4.68;;;19.80;99.90;;;;;;5064886;28;20017;-78
2022/09/26 13:09:48;;;;;;;24.33;4.10;;;20.10;99.90;;;;;;5065500;28;20054;-81
2022/09/26 13:12:45;;;;;;;33.35;5.10;;;20.00;99.90;;;;;;5074137;28;20024;-79
2022/09/26 13:15:35;;;;;;;34.67;6.88;;;20.10;99.90;;;;;;5074000;28;20035;-75
2022/09/26 13:18:36;;;;;;;4.40;1.20;;;20.10;99.90;;;;;;5072869;28;20021;-76
2022/09/26 13:21:06;;;;;;;;;;;20.20;99.90;;;;;;5071326;28;20020;-75
2022/09/26 13:23:51;;;;;;;4.32;1.40;;;20.40;99.90;;;;;;5067901;28;19915;-76
2022/09/26 13:26:27;;;;;;;2.85;1.40;;;20.60;99.90;;;;;;5073387;28;20021;-77